Meteo Giornale » Osservazioni meteo Italia » Roma Fiumicino

ore: 01:20 - Osservazioni Meteo Roma Fiumicino
Lat. 41° 48' N Lon. 12° 14' E Alt. 2 metri s.l.m.

sereno Europe/Rome

22 °C

Sereno

Temp. 24 Ore

20 °C

32 °C

Nord

3.7 Km/h

Dew point 21 °C

Umidità 94 %

Visibilità  10 Km

Il sole sorge alle ore 06:22

Il sole tramonta alle ore 20:06

Data e Ora Cielo e Fenomeni T °C DP °C Um. % Pres. hPa Vis. km Vento km/h
Oggi h: 01:20 sereno Sereno 22 21 94 1015 10 N 3.7
Oggi h: 00:50 sereno Sereno 22 21 94 1015 10 N 5.5
Oggi h: 00:20 sereno Sereno 22 21 94 1015 10 N 1.8
Ieri h: 23:50 sereno Sereno 23 22 94 1016 10 N 1.8
Ieri h: 23:20 sereno Sereno 23 22 94 1015 10 N 3.7
Ieri h: 22:50 sereno Sereno 24 23 94 1015 10 N 1.8
Ieri h: 22:20 sereno Sereno 24 22 88 1015 10 N 3.7
Ieri h: 21:50 sereno Sereno 25 22 83 1015 10 N 1.8
Ieri h: 21:20 sereno Sereno 26 23 83 1015 10 N 5.5
Ieri h: 20:50 sereno Sereno 26 23 83 1015 10 SO 9.3
Ieri h: 20:20 sereno Sereno 26 21 73 1015 10 SO 9.3
Ieri h: 19:50 sereno Sereno 27 22 74 1015 10 O/SO 11.1
Ieri h: 19:20 sereno Sereno 28 21 65 1015 10 O/SO 11.1
Ieri h: 18:50 sereno Sereno 28 21 65 1015 10 O/SO 9.3
Ieri h: 18:20 sereno Sereno 28 22 69 1015 10 O/SO 11.1
Ieri h: 17:50 sereno Sereno 28 22 69 1015 10 O/SO 16.7
Ieri h: 17:20 sereno Sereno 28 21 65 1015 10 O/SO 20.3
Ieri h: 16:50 sereno Sereno 29 20 58 1015 10 SO 20.3
Ieri h: 16:20 sereno Sereno 29 20 58 1015 10 O/SO 20.3
Ieri h: 15:50 sereno Sereno 30 18 48 1016 10 SO 20.3
Ieri h: 15:20 sereno Sereno 31 18 45 1016 10 S/SO 18.5
Ieri h: 14:50 sereno Sereno 31 16 40 1016 10 SO 18.5
Ieri h: 14:20 sereno Sereno 32 17 40 1016 10 S/SO 16.7
Ieri h: 13:50 sereno Sereno 32 15 35 1016 10 S/SO 14.8
Ieri h: 13:20 sereno Sereno 31 17 43 1016 10 S 14.8
Ieri h: 12:50 sereno Sereno 30 18 48 1016 10 S/SO 16.7
Ieri h: 12:20 sereno Sereno 31 19 48 1017 10 S 14.8
Ieri h: 11:50 sereno Sereno 31 20 52 1017 10 S 14.8
Ieri h: 11:20 sereno Sereno 30 20 55 1017 10 S 16.7
Ieri h: 10:50 sereno Sereno 29 20 58 1017 10 S/SO 16.7
Ieri h: 10:20 sereno Sereno 30 18 48 1017 10 S 13
Ieri h: 09:50 sereno Sereno 29 18 51 1017 10 S 11.1
Ieri h: 09:20 sereno Sereno 28 17 51 1017 10 N 5.5
Ieri h: 08:50 sereno Sereno 27 18 57 1017 10 SE 7.4
Ieri h: 08:20 sereno Sereno 25 18 65 1016 10 E/SE 7.4
Ieri h: 07:50 sereno Sereno 24 19 73 1016 10 N 1.8
Ieri h: 07:20 sereno Sereno 21 20 94 1016 10 N 1.8
Ieri h: 06:50 sereno Sereno 20 19 93 1016 10 N 3.7
Ieri h: 06:20 sereno Sereno 20 19 93 1016 10 N 3.7
Ieri h: 05:50 sereno Sereno 21 20 94 1015 10 E 7.4
Ieri h: 05:20 sereno Sereno 21 20 94 1015 10 N 5.5
Ieri h: 04:50 sereno Sereno 21 20 94 1015 10 N 5.5
Ieri h: 04:20 sereno Sereno 21 20 94 1016 10 N 5.5
Ieri h: 03:50 sereno Sereno 21 20 94 1015 10 N 5.5
Ieri h: 03:20 sereno Sereno 21 20 94 1015 10 NE 7.4
Ieri h: 02:50 sereno Sereno 21 20 94 1016 10 N 1.8
Ieri h: 02:20 sereno Sereno 21 19 88 1016 10 N 0
Ieri h: 01:50 sereno Sereno 23 21 88 1016 10 N 0